Nearby METAR Reports

 

EGNR - Hawarden (aut), United Kingdom
Distance from station: ESE 33mi, 53km
Updated: 26/09/2018 09:50
Partly cloudy
Partly cloudy
 Wind from SW
Wind: SW 23 mph , 37 km/h
Temperature: 15°C
Dew Point: 11°C
Humidity: 77%
Barometer: 1030 hPa
Clouds: Partly cloudy
Visibility: 6 miles , 10 km
Cloud details: Partly cloudy 1219 m
2018/09/26 08:50 EGNR 260850Z 23020KT 9999 SCT040 15/11 Q1030
EGOV - Valley Raf, United Kingdom
Distance from station: W 33mi, 53km
Updated: 26/09/2018 09:50
Partly cloudy
Partly cloudy
 Wind from SSW
Wind: SSW 22 mph , 35 km/h
Temperature: 15°C
Dew Point: 13°C
Humidity: 88%
Barometer: 1030 hPa
Clouds: Partly cloudy
Visibility: 6 miles , 10 km
Cloud details: Partly cloudy 305 m
Partly cloudy 914 m
2018/09/26 08:50 EGOV 260850Z 21019KT 9999 SCT010 SCT030 15/13 Q1030 GRN TEMPO FEW010 SCT030 BLU
 
EGGP - Liverpool Airpor, United Kingdom
Distance from station: E 37mi, 59km
Updated: 26/09/2018 09:50
Partly cloudy
Partly cloudy
 Wind from SW
Wind: SW 10 mph , 17 km/h
Temperature: 15°C
Dew Point: 12°C
Humidity: 82%
Barometer: 1030 hPa
Clouds: Partly cloudy
Visibility: 6 miles , 10 km
Cloud details: Partly cloudy 762 m
2018/09/26 08:50 EGGP 260850Z 22009KT 9999 SCT025 15/12 Q1030
EGNH - Blackpool Airpor, United Kingdom
Distance from station: NE 44mi, 72km
Updated: 26/09/2018 09:50
Mostly cloudy
Mostly cloudy
 Wind from SW
Wind: SW 21 mph , 33 km/h
Temperature: 16°C
Dew Point: 13°C
Humidity: 83%
Barometer: 1029 hPa
Clouds: Mostly cloudy
Visibility: 6 miles , 10 km
Cloud details: Mostly cloudy 549 m
2018/09/26 08:50 EGNH 260850Z 22018KT 9999 BKN018 16/13 Q1029
 
EGNO - Wharton, United Kingdom
Distance from station: NE 47mi, 76km
Updated: 26/09/2018 09:50
Mostly cloudy
Mostly cloudy
 Wind from SW
Wind: SW 8 mph , 13 km/h
Temperature: 15°C
Dew Point: 13°C
Humidity: 88%
Barometer: 1029 hPa
Clouds: Mostly cloudy
Visibility: 6 miles , 10 km
Cloud details: Mostly cloudy 610 m
2018/09/26 08:50 EGNO 260850Z 22007KT 9999 BKN020 15/13 Q1029
EGOS - Shawbury Raf, United Kingdom
Distance from station: SE 56mi, 89km
Updated: 26/09/2018 09:50
Mostly cloudy
Mostly cloudy
 Wind from WSW
Wind: WSW 18 mph , 30 km/h
Temperature: 14°C
Dew Point: 11°C
Humidity: 82%
Barometer: 1031 hPa
Clouds: Mostly cloudy
Visibility: 6 miles , 10 km
Cloud details: Few Clouds 914 m
Mostly cloudy 1829 m
2018/09/26 08:50 EGOS 260850Z 25016KT 9999 FEW030 BKN060 14/11 Q1031 BLU NOSIG
 
EGCC - Manchester Intl, United Kingdom
Distance from station: E 61mi, 98km
Updated: 26/09/2018 09:50
Mostly cloudy
Mostly cloudy
 Wind from S
Wind: S 6 mph , 9 km/h
Temperature: 14°C
Dew Point: 11°C
Humidity: 82%
Barometer: 1030 hPa
Clouds: Mostly cloudy
Visibility: 6 miles , 10 km
Cloud details: Partly cloudy 732 m
Mostly cloudy 945 m
2018/09/26 08:50 EGCC 260850Z 19005KT 150V230 9999 SCT024 BKN031 14/11 Q1030
EGNS - Isle Of Man/Rona, United Kingdom
Distance from station: NW 66mi, 107km
Updated: 26/09/2018 09:50
Mostly cloudy
Mostly cloudy
 Wind from WSW
Wind: WSW 21 mph , 33 km/h
Temperature: 16°C
Dew Point: 14°C
Humidity: 88%
Barometer: 1028 hPa
Clouds: Mostly cloudy
Visibility: 6 miles , 10 km
Cloud details: Few Clouds 244 m
Mostly cloudy 396 m
2018/09/26 08:50 EGNS 260850Z 24018KT 210V270 9999 FEW008 BKN013 16/14 Q1028 NOSIG
 
EGNM - Leeds And Bradfo, United Kingdom
Distance from station: ENE 95mi, 153km
Updated: 26/09/2018 09:50
Partly cloudy
Partly cloudy
 Wind from WSW
Wind: WSW 24 mph , 39 km/h
Temperature: 15°C
Dew Point: 12°C
Humidity: 82%
Barometer: 1028 hPa
Clouds: Partly cloudy
Visibility: 6 miles , 10 km
Cloud details: Partly cloudy 305 m
2018/09/26 08:50 EGNM 260850Z 25021KT 9999 SCT010 15/12 Q1028
EGBB - Birmingham Airpo, United Kingdom
Distance from station: ESE 100mi, 161km
Updated: 26/09/2018 09:50
Clear
Clear
 Wind from W
Wind: W 8 mph , 13 km/h
Temperature: 14°C
Dew Point: 9°C
Humidity: 72%
Barometer: 1032 hPa
Summary: Clear
Visibility: greater than 7 miles , 10 km
2018/09/26 08:50 EGBB 260850Z 26007KT 210V290 CAVOK 14/09 Q1032